William R Fairchild International Airport
KCLM : rendu visible

Aérodrome :











RETROUVEZ-NOUS SUR...

 
LOGIN :

S'inscrire | Disclaimer

   EN    FR    IT 

 









Légende :    VFR   VFR Marginal   IFR   IFR Intensif   IFR Très Intensif
Visi : 
Plafond : 
>= 8 km
>= 3000ft
5 à 8 km
1000 à 3000 ft
1500m à 5 km
500 à 1000 ft
800 à 1500m
200 à 500 ft
< 800m
< 200 ft
Symboles :   Orages  Brouillard  Fortes neiges  Fortes précipitations  Vent > 20 kt






- Altitude de l'aérodrome : 291 ft
- Code IATA : CLM


KCLM - William R Fairchild International

DERNIER METAR :
  • 100733Z AUTO 00000KT 7SM OVC004 05/04 A3017 RMK AO2 T00500044

METARs EXPIRÉS :
  • 100714Z AUTO 00000KT 7SM OVC005 05/04 A3017 RMK AO2 T00500039
  • 100701Z AUTO 00000KT 7SM OVC004 05/05 A3017 RMK AO2 T00500050
  • 100653Z AUTO 00000KT 7SM OVC005 05/05 A3018 RMK AO2 CIG 003V007 SLP220 T00500050
  • 100612Z AUTO 11005KT 4SM BR OVC002 04/04 A3017 RMK AO2 T00440044
  • 100603Z AUTO 10003KT 2 1/2SM BR OVC002 05/04 A3018 RMK AO2 T00500044
  • 100553Z AUTO 09004KT 1 3/4SM BR OVC002 04/04 A3018 RMK AO2 SLP220 T00440044 10056 20044 58009
  • 100453Z AUTO 10005KT 6SM BR OVC003 05/04 A3019 RMK AO2 SLP224 T00500044

TAF KCLM
Valide du 10 à 06h jusqu'au 11 à 06h UTC


100520Z 1006/1106 09005KT 6SM BR OVC004
FM100700 12003KT P6SM SCT025
FM100900 17003KT P6SM OVC010
FM101900 22003KT P6SM OVC020
FM102200 10003KT 2SM -RA OVC003



MET'MAP, la Météo Aéronautique d'un coup d'oeil ! - Copyright ORBIFLY Décembre 2007 - Disclaimer

ORBIFLY MET'MAP TEAM :

Programmation & Développement : Alexandra Zaïnal
Sur une idée originale de : Baudouin d'Aumeries
Assistance à la programmation : Marc-Olivier Méhu
Soutien technique & logistique : Manuel Goepfert

Contact : metmap@orbifly.com




SOURCES & CREDITS :

   NOAA       Earth
Advisory